Malczyce, Poland
Current Conditions -  °F | °C
As of 10:00 AM on Friday 24 Oct 2014 (Local Time) from EPWR Reporting Station
Haze Haze  
Wind Chill: 41°   Ceiling: 500
Heat Index: 41°   Visibility: 3mi
Dew Point: 37°   Wind: 3mph
Humidity: 87%   Direction: 50°NE
Pressure: 30.3"   Gusts: NA
Location:  51.22°N, 16.48°E
Report Text: EPWR 240800Z 05003KT 020V080 5000 BR OVC005 05/03 Q1026
Loading
Personal Weather Stations






























Interactive Weather Map
Tropical Storm Tracking
New forecast layout! Learn more

10-Day Weather Forecast

Advertisements
Track Severe Weather on mobile